Forside
METAR-TAF:

METAR-TAF

Lufthavne :

Victoria, Mahé, Seychellerne

Breddekreds: 04-40S, længdekreds: 055-31E, højde: 3 m

Aktuelle vejr

Denne rapport blev lavet for 19 minutter siden, kl. 01:00 UTC
Vind 3 kt fra sydøst, varierende mellem nordøst og sydsydvest
Temperatur 28°C
Fugtighed 84%
Tryk 1012 hPa
Sigt 10 km eller mere
Spredte skyer i en højde af 2100 ft

METAR: FSIA 210100Z 13003KT 040V210 9999 SCT021 28/25 Q1012 NOSIG

Tid: 05:19 (01:19 UTC)

Vejrudsigter

Denne rapport blev lavet for 2 timer og 16 minutter siden, kl. 23:03 UTC
Foreløbig gælder fra 21 på 00 UTC til 21 på 24 UTC
Vind 4 kt fra varierende retninger
Sigt 10 km eller mere
Spredte skyer i en højde af 2400 ft
ændring
fra 21 på 04 UTC til 21 på 06 UTC
Vind 10 kt fra øst

TAF: FSIA 202303Z 2100/2124 VRB04KT 9999 SCT024 BECMG 2104/2106 10010KT

Vejrobservationer og prognoser fra mere end 4000 lufthavne (METAR og TAF).

De gule og røde prikker repræsenterer de meteorologiske stationer.

Flyt musen over at se navnet på stationen.

Så klik over at se vejr observationer og prognoser.

At skifte det kort: Klik på de grønne knapper med et sort kors for at zoome ind; på den grønne knap med en bindestreg for at zoome ud; eller på de grønne pile for tilstødende kort.


METAR-TAF: